PWSweather.com
Personal Weather Stations
Station Observations
KMNMADEL2
Andys Live Weather Stations, Madelia, MN 56062

Andys Live Weather StationsMadelia, MN 56062

Lat: 44.04636, Lon: -94.4163437

Elevation: 1006

Station Type: Wireless Davis Instruments Vantage Pro2 Plus

http://www.madeliasliveweather.com/

Latest ConditionsUpdated 9:25:02 AM CDT Saturday, Apr 19, 2014
Currently Today's Max Today's Min Today's Average
Temperature 50.0°F10.0°C 50.0°F10.0°C 44.3°F6.8°C 47.0°F8.3°C
Dew Point 41.0°F5.0°C 41.0°F5.0°C 35.0°F1.7°C 36.2°F2.3°C
Winds 8.0 mph SSE12.9 kmh SSE 22.0 mph SSE35.4 kmh SSE - 8.2 mph 13.2 kmh
Wind Gusts 28.0 mph45.1 kmh 28.0 mph45.1 kmh - -
Humidity 71% 74% 59% 66%
Pressure 30.02 in1016.6 mb 30.10 in1019.3 mb 30.02 in1016.6 mb -
Hour Temp Dew Point Humidity Winds Wind Gusts Pressure Precip Precip Rate Daily Precip Total
09:25 AM 50.0°F10.0°C 41.0°F5.0°C 71% 8.0 mph SSE12.9 kmh SSE 28.0 mph45.1 kmh 30.02 in1016.6 mb 0.00 in0.0 mm 0.00 in/hr0.0 mm/hr 0.00 in0.0 mm
09:20 AM 49.8°F9.9°C 40.8°F4.9°C 71% 10.0 mph S16.1 kmh S 25.0 mph40.2 kmh 30.02 in1016.6 mb 0.00 in0.0 mm 0.00 in/hr0.0 mm/hr 0.00 in0.0 mm
09:15 AM 49.3°F9.6°C 40.7°F4.8°C 72% 13.0 mph SSE20.9 kmh SSE 25.0 mph40.2 kmh 30.02 in1016.6 mb 0.00 in0.0 mm 0.00 in/hr0.0 mm/hr 0.00 in0.0 mm
09:10 AM 49.1°F9.5°C 40.5°F4.7°C 72% 10.0 mph SE16.1 kmh SE 23.0 mph37.0 kmh 30.02 in1016.6 mb 0.00 in0.0 mm 0.00 in/hr0.0 mm/hr 0.00 in0.0 mm
09:05 AM 49.0°F9.4°C 40.0°F4.4°C 71% 19.0 mph SE30.6 kmh SE 23.0 mph37.0 kmh 30.03 in1016.9 mb 0.00 in0.0 mm 0.00 in/hr0.0 mm/hr 0.00 in0.0 mm
09:00 AM 48.8°F9.3°C 39.8°F4.3°C 71% 14.0 mph S22.5 kmh S 21.0 mph33.8 kmh 30.03 in1016.9 mb 0.00 in0.0 mm 0.00 in/hr0.0 mm/hr 0.00 in0.0 mm
08:55 AM 48.7°F9.3°C 40.1°F4.5°C 72% 12.0 mph SE19.3 kmh SE 26.0 mph41.8 kmh 30.04 in1017.3 mb 0.00 in0.0 mm 0.00 in/hr0.0 mm/hr 0.00 in0.0 mm
08:50 AM 48.5°F9.2°C 39.9°F4.4°C 72% 10.0 mph S16.1 kmh S 24.0 mph38.6 kmh 30.06 in1017.9 mb 0.00 in0.0 mm 0.00 in/hr0.0 mm/hr 0.00 in0.0 mm
08:45 AM 48.4°F9.1°C 39.4°F4.1°C 71% 10.0 mph SE16.1 kmh SE 24.0 mph38.6 kmh 30.06 in1017.9 mb 0.00 in0.0 mm 0.00 in/hr0.0 mm/hr 0.00 in0.0 mm
08:40 AM 48.3°F9.1°C 40.4°F4.7°C 74% 16.0 mph SE25.7 kmh SE 24.0 mph38.6 kmh 30.06 in1017.9 mb 0.00 in0.0 mm 0.00 in/hr0.0 mm/hr 0.00 in0.0 mm
08:35 AM 48.1°F8.9°C 39.2°F4.0°C 71% 10.0 mph SE16.1 kmh SE 21.0 mph33.8 kmh 30.06 in1017.9 mb 0.00 in0.0 mm 0.00 in/hr0.0 mm/hr 0.00 in0.0 mm
08:30 AM 48.0°F8.9°C 39.1°F3.9°C 71% 9.0 mph SE14.5 kmh SE 19.0 mph30.6 kmh 30.06 in1017.9 mb 0.00 in0.0 mm 0.00 in/hr0.0 mm/hr 0.00 in0.0 mm
08:25 AM 47.9°F8.8°C 39.0°F3.9°C 71% 8.0 mph S12.9 kmh S 24.0 mph38.6 kmh 30.06 in1017.9 mb 0.00 in0.0 mm 0.00 in/hr0.0 mm/hr 0.00 in0.0 mm
08:20 AM 47.8°F8.8°C 38.9°F3.8°C 71% 12.0 mph S19.3 kmh S 24.0 mph38.6 kmh 30.06 in1017.9 mb 0.00 in0.0 mm 0.00 in/hr0.0 mm/hr 0.00 in0.0 mm
08:15 AM 47.5°F8.6°C 38.6°F3.7°C 71% 12.0 mph SE19.3 kmh SE 24.0 mph38.6 kmh 30.06 in1017.9 mb 0.00 in0.0 mm 0.00 in/hr0.0 mm/hr 0.00 in0.0 mm
08:10 AM 47.2°F8.4°C 38.7°F3.7°C 72% 9.0 mph S14.5 kmh S 24.0 mph38.6 kmh 30.06 in1017.9 mb 0.00 in0.0 mm 0.00 in/hr0.0 mm/hr 0.00 in0.0 mm
08:05 AM 46.8°F8.2°C 38.3°F3.5°C 72% 17.0 mph SE27.4 kmh SE 24.0 mph38.6 kmh 30.05 in1017.6 mb 0.00 in0.0 mm 0.00 in/hr0.0 mm/hr 0.00 in0.0 mm
08:00 AM 46.6°F8.1°C 38.1°F3.4°C 72% 7.0 mph SE11.3 kmh SE 22.0 mph35.4 kmh 30.04 in1017.3 mb 0.00 in0.0 mm 0.00 in/hr0.0 mm/hr 0.00 in0.0 mm
07:55 AM 46.5°F8.1°C 38.0°F3.3°C 72% 9.0 mph ESE14.5 kmh ESE 26.0 mph41.8 kmh 30.05 in1017.6 mb 0.00 in0.0 mm 0.00 in/hr0.0 mm/hr 0.00 in0.0 mm
07:50 AM 46.1°F7.8°C 37.6°F3.1°C 72% 22.0 mph SSE35.4 kmh SSE 25.0 mph40.2 kmh 30.04 in1017.3 mb 0.00 in0.0 mm 0.00 in/hr0.0 mm/hr 0.00 in0.0 mm
07:45 AM 45.7°F7.6°C 37.6°F3.1°C 73% 9.0 mph SSE14.5 kmh SSE 25.0 mph40.2 kmh 30.04 in1017.3 mb 0.00 in0.0 mm 0.00 in/hr0.0 mm/hr 0.00 in0.0 mm
07:40 AM 45.5°F7.5°C 37.4°F3.0°C 73% 9.0 mph S14.5 kmh S 25.0 mph40.2 kmh 30.03 in1016.9 mb 0.00 in0.0 mm 0.00 in/hr0.0 mm/hr 0.00 in0.0 mm
07:35 AM 45.3°F7.4°C 37.2°F2.9°C 73% 16.0 mph SSE25.7 kmh SSE 24.0 mph38.6 kmh 30.03 in1016.9 mb 0.00 in0.0 mm 0.00 in/hr0.0 mm/hr 0.00 in0.0 mm
07:30 AM 45.1°F7.3°C 37.0°F2.8°C 73% 14.0 mph SE22.5 kmh SE 22.0 mph35.4 kmh 30.04 in1017.3 mb 0.00 in0.0 mm 0.00 in/hr0.0 mm/hr 0.00 in0.0 mm
07:25 AM 44.8°F7.1°C 36.7°F2.6°C 73% 13.0 mph SE20.9 kmh SE 25.0 mph40.2 kmh 30.04 in1017.3 mb 0.00 in0.0 mm 0.00 in/hr0.0 mm/hr 0.00 in0.0 mm
07:20 AM 44.6°F7.0°C 36.5°F2.5°C 73% 10.0 mph SSE16.1 kmh SSE 25.0 mph40.2 kmh 30.04 in1017.3 mb 0.00 in0.0 mm 0.00 in/hr0.0 mm/hr 0.00 in0.0 mm
07:15 AM 44.5°F6.9°C 36.4°F2.4°C 73% 9.0 mph SSE14.5 kmh SSE 25.0 mph40.2 kmh 30.05 in1017.6 mb 0.00 in0.0 mm 0.00 in/hr0.0 mm/hr 0.00 in0.0 mm
07:10 AM 44.3°F6.8°C 36.2°F2.3°C 73% 6.0 mph SSE9.7 kmh SSE 25.0 mph40.2 kmh 30.05 in1017.6 mb 0.00 in0.0 mm 0.00 in/hr0.0 mm/hr 0.00 in0.0 mm
07:05 AM 44.4°F6.9°C 36.3°F2.4°C 73% 7.0 mph SSE11.3 kmh SSE 25.0 mph40.2 kmh 30.05 in1017.6 mb 0.00 in0.0 mm 0.00 in/hr0.0 mm/hr 0.00 in0.0 mm
07:00 AM 44.6°F7.0°C 36.2°F2.3°C 72% 9.0 mph SE14.5 kmh SE 16.0 mph25.7 kmh 30.06 in1017.9 mb 0.00 in0.0 mm 0.00 in/hr0.0 mm/hr 0.00 in0.0 mm
06:55 AM 44.7°F7.1°C 35.9°F2.2°C 71% 8.0 mph SE12.9 kmh SE 22.0 mph35.4 kmh 30.05 in1017.6 mb 0.00 in0.0 mm 0.00 in/hr0.0 mm/hr 0.00 in0.0 mm
06:50 AM 44.9°F7.2°C 36.1°F2.3°C 71% 14.0 mph SE22.5 kmh SE 19.0 mph30.6 kmh 30.06 in1017.9 mb 0.00 in0.0 mm 0.00 in/hr0.0 mm/hr 0.00 in0.0 mm
06:45 AM 45.1°F7.3°C 35.9°F2.2°C 70% 9.0 mph SE14.5 kmh SE 19.0 mph30.6 kmh 30.06 in1017.9 mb 0.00 in0.0 mm 0.00 in/hr0.0 mm/hr 0.00 in0.0 mm
06:40 AM 45.2°F7.3°C 36.0°F2.2°C 70% 5.0 mph ESE8.0 kmh ESE 18.0 mph29.0 kmh 30.06 in1017.9 mb 0.00 in0.0 mm 0.00 in/hr0.0 mm/hr 0.00 in0.0 mm
06:35 AM 45.3°F7.4°C 36.1°F2.3°C 70% 6.0 mph SE9.7 kmh SE 18.0 mph29.0 kmh 30.06 in1017.9 mb 0.00 in0.0 mm 0.00 in/hr0.0 mm/hr 0.00 in0.0 mm
06:30 AM 45.5°F7.5°C 35.9°F2.2°C 69% 9.0 mph SE14.5 kmh SE 13.0 mph20.9 kmh 30.06 in1017.9 mb 0.00 in0.0 mm 0.00 in/hr0.0 mm/hr 0.00 in0.0 mm
06:25 AM 45.5°F7.5°C 35.9°F2.2°C 69% 9.0 mph SSE14.5 kmh SSE 19.0 mph30.6 kmh 30.06 in1017.9 mb 0.00 in0.0 mm 0.00 in/hr0.0 mm/hr 0.00 in0.0 mm
06:20 AM 45.6°F7.6°C 36.0°F2.2°C 69% 7.0 mph SE11.3 kmh SE 19.0 mph30.6 kmh 30.06 in1017.9 mb 0.00 in0.0 mm 0.00 in/hr0.0 mm/hr 0.00 in0.0 mm
06:15 AM 45.8°F7.7°C 35.9°F2.2°C 68% 16.0 mph SSE25.7 kmh SSE 19.0 mph30.6 kmh 30.06 in1017.9 mb 0.00 in0.0 mm 0.00 in/hr0.0 mm/hr 0.00 in0.0 mm
06:10 AM 45.8°F7.7°C 35.9°F2.2°C 68% 12.0 mph SE19.3 kmh SE 19.0 mph30.6 kmh 30.07 in1018.3 mb 0.00 in0.0 mm 0.00 in/hr0.0 mm/hr 0.00 in0.0 mm
06:05 AM 45.8°F7.7°C 35.9°F2.2°C 68% 9.0 mph S14.5 kmh S 17.0 mph27.4 kmh 30.07 in1018.3 mb 0.00 in0.0 mm 0.00 in/hr0.0 mm/hr 0.00 in0.0 mm
06:00 AM 45.7°F7.6°C 35.8°F2.1°C 68% 12.0 mph SE19.3 kmh SE 17.0 mph27.4 kmh 30.07 in1018.3 mb 0.00 in0.0 mm 0.00 in/hr0.0 mm/hr 0.00 in0.0 mm
05:55 AM 45.7°F7.6°C 35.8°F2.1°C 68% 5.0 mph S8.0 kmh S 17.0 mph27.4 kmh 30.08 in1018.6 mb 0.00 in0.0 mm 0.00 in/hr0.0 mm/hr 0.00 in0.0 mm
05:50 AM 45.8°F7.7°C 35.9°F2.2°C 68% 6.0 mph SE9.7 kmh SE 17.0 mph27.4 kmh 30.08 in1018.6 mb 0.00 in0.0 mm 0.00 in/hr0.0 mm/hr 0.00 in0.0 mm
05:45 AM 45.8°F7.7°C 35.9°F2.2°C 68% 6.0 mph SE9.7 kmh SE 17.0 mph27.4 kmh 30.07 in1018.3 mb 0.00 in0.0 mm 0.00 in/hr0.0 mm/hr 0.00 in0.0 mm
05:40 AM 45.8°F7.7°C 35.9°F2.2°C 68% 5.0 mph SSE8.0 kmh SSE 17.0 mph27.4 kmh 30.07 in1018.3 mb 0.00 in0.0 mm 0.00 in/hr0.0 mm/hr 0.00 in0.0 mm
05:35 AM 45.7°F7.6°C 35.8°F2.1°C 68% 4.0 mph S6.4 kmh S 17.0 mph27.4 kmh 30.08 in1018.6 mb 0.00 in0.0 mm 0.00 in/hr0.0 mm/hr 0.00 in0.0 mm
05:30 AM 45.6°F7.6°C 35.7°F2.1°C 68% 8.0 mph SE12.9 kmh SE 12.0 mph19.3 kmh 30.08 in1018.6 mb 0.00 in0.0 mm 0.00 in/hr0.0 mm/hr 0.00 in0.0 mm
05:25 AM 45.5°F7.5°C 35.6°F2.0°C 68% 5.0 mph SE8.0 kmh SE 15.0 mph24.1 kmh 30.08 in1018.6 mb 0.00 in0.0 mm 0.00 in/hr0.0 mm/hr 0.00 in0.0 mm
05:20 AM 45.3°F7.4°C 35.4°F1.9°C 68% 2.0 mph SE3.2 kmh SE 14.0 mph22.5 kmh 30.08 in1018.6 mb 0.00 in0.0 mm 0.00 in/hr0.0 mm/hr 0.00 in0.0 mm
05:15 AM 45.3°F7.4°C 35.4°F1.9°C 68% 6.0 mph SE9.7 kmh SE 14.0 mph22.5 kmh 30.08 in1018.6 mb 0.00 in0.0 mm 0.00 in/hr0.0 mm/hr 0.00 in0.0 mm
05:10 AM 45.3°F7.4°C 35.4°F1.9°C 68% 13.0 mph SE20.9 kmh SE 14.0 mph22.5 kmh 30.08 in1018.6 mb 0.00 in0.0 mm 0.00 in/hr0.0 mm/hr 0.00 in0.0 mm
05:05 AM 45.4°F7.4°C 35.1°F1.7°C 67% 8.0 mph ESE12.9 kmh ESE 13.0 mph20.9 kmh 30.08 in1018.6 mb 0.00 in0.0 mm 0.00 in/hr0.0 mm/hr 0.00 in0.0 mm
05:00 AM 45.6°F7.6°C 35.3°F1.8°C 67% 5.0 mph SE8.0 kmh SE 13.0 mph20.9 kmh 30.09 in1019.0 mb 0.00 in0.0 mm 0.00 in/hr0.0 mm/hr 0.00 in0.0 mm
04:55 AM 45.7°F7.6°C 35.4°F1.9°C 67% 7.0 mph SE11.3 kmh SE 18.0 mph29.0 kmh 30.09 in1019.0 mb 0.00 in0.0 mm 0.00 in/hr0.0 mm/hr 0.00 in0.0 mm
04:50 AM 45.9°F7.7°C 35.2°F1.8°C 66% 5.0 mph SE8.0 kmh SE 12.0 mph19.3 kmh 30.09 in1019.0 mb 0.00 in0.0 mm 0.00 in/hr0.0 mm/hr 0.00 in0.0 mm
04:45 AM 46.1°F7.8°C 35.4°F1.9°C 66% 7.0 mph SE11.3 kmh SE 12.0 mph19.3 kmh 30.09 in1019.0 mb 0.00 in0.0 mm 0.00 in/hr0.0 mm/hr 0.00 in0.0 mm
04:40 AM 46.3°F7.9°C 35.2°F1.8°C 65% 6.0 mph SE9.7 kmh SE 12.0 mph19.3 kmh 30.09 in1019.0 mb 0.00 in0.0 mm 0.00 in/hr0.0 mm/hr 0.00 in0.0 mm
04:35 AM 46.5°F8.1°C 35.4°F1.9°C 65% 8.0 mph ESE12.9 kmh ESE 12.0 mph19.3 kmh 30.09 in1019.0 mb 0.00 in0.0 mm 0.00 in/hr0.0 mm/hr 0.00 in0.0 mm
04:30 AM 46.8°F8.2°C 35.3°F1.8°C 64% 5.0 mph SE8.0 kmh SE 9.0 mph14.5 kmh 30.09 in1019.0 mb 0.00 in0.0 mm 0.00 in/hr0.0 mm/hr 0.00 in0.0 mm
04:25 AM 47.1°F8.4°C 35.2°F1.8°C 63% 5.0 mph ESE8.0 kmh ESE 11.0 mph17.7 kmh 30.09 in1019.0 mb 0.00 in0.0 mm 0.00 in/hr0.0 mm/hr 0.00 in0.0 mm
04:20 AM 47.2°F8.4°C 35.3°F1.8°C 63% 4.0 mph ESE6.4 kmh ESE 11.0 mph17.7 kmh 30.09 in1019.0 mb 0.00 in0.0 mm 0.00 in/hr0.0 mm/hr 0.00 in0.0 mm
04:15 AM 47.3°F8.5°C 35.4°F1.9°C 63% 6.0 mph SE9.7 kmh SE 11.0 mph17.7 kmh 30.09 in1019.0 mb 0.00 in0.0 mm 0.00 in/hr0.0 mm/hr 0.00 in0.0 mm
04:10 AM 47.4°F8.6°C 35.5°F1.9°C 63% 8.0 mph SE12.9 kmh SE 11.0 mph17.7 kmh 30.10 in1019.3 mb 0.00 in0.0 mm 0.00 in/hr0.0 mm/hr 0.00 in0.0 mm
04:05 AM 47.5°F8.6°C 35.6°F2.0°C 63% 3.0 mph SE4.8 kmh SE 11.0 mph17.7 kmh 30.10 in1019.3 mb 0.00 in0.0 mm 0.00 in/hr0.0 mm/hr 0.00 in0.0 mm
04:00 AM 47.5°F8.6°C 35.6°F2.0°C 63% 4.0 mph ESE6.4 kmh ESE 8.0 mph12.9 kmh 30.09 in1019.0 mb 0.00 in0.0 mm 0.00 in/hr0.0 mm/hr 0.00 in0.0 mm
03:55 AM 47.5°F8.6°C 35.6°F2.0°C 63% 5.0 mph ESE8.0 kmh ESE 18.0 mph29.0 kmh 30.08 in1018.6 mb 0.00 in0.0 mm 0.00 in/hr0.0 mm/hr 0.00 in0.0 mm
03:50 AM 47.5°F8.6°C 35.6°F2.0°C 63% 7.0 mph SSE11.3 kmh SSE 18.0 mph29.0 kmh 30.07 in1018.3 mb 0.00 in0.0 mm 0.00 in/hr0.0 mm/hr 0.00 in0.0 mm
03:45 AM 47.7°F8.7°C 35.3°F1.8°C 62% 11.0 mph SE17.7 kmh SE 18.0 mph29.0 kmh 30.06 in1017.9 mb 0.00 in0.0 mm 0.00 in/hr0.0 mm/hr 0.00 in0.0 mm
03:40 AM 47.8°F8.8°C 35.4°F1.9°C 62% 14.0 mph SE22.5 kmh SE 18.0 mph29.0 kmh 30.06 in1017.9 mb 0.00 in0.0 mm 0.00 in/hr0.0 mm/hr 0.00 in0.0 mm
03:35 AM 48.1°F8.9°C 35.7°F2.1°C 62% 7.0 mph SE11.3 kmh SE 18.0 mph29.0 kmh 30.06 in1017.9 mb 0.00 in0.0 mm 0.00 in/hr0.0 mm/hr 0.00 in0.0 mm
03:30 AM 48.1°F8.9°C 35.7°F2.1°C 62% 8.0 mph SE12.9 kmh SE 10.0 mph16.1 kmh 30.06 in1017.9 mb 0.00 in0.0 mm 0.00 in/hr0.0 mm/hr 0.00 in0.0 mm
03:25 AM 47.8°F8.8°C 35.4°F1.9°C 62% 9.0 mph SE14.5 kmh SE 15.0 mph24.1 kmh 30.06 in1017.9 mb 0.00 in0.0 mm 0.00 in/hr0.0 mm/hr 0.00 in0.0 mm
03:20 AM 47.7°F8.7°C 35.3°F1.8°C 62% 5.0 mph SSE8.0 kmh SSE 15.0 mph24.1 kmh 30.07 in1018.3 mb 0.00 in0.0 mm 0.00 in/hr0.0 mm/hr 0.00 in0.0 mm
03:15 AM 47.4°F8.6°C 35.5°F1.9°C 63% 4.0 mph SE6.4 kmh SE 14.0 mph22.5 kmh 30.07 in1018.3 mb 0.00 in0.0 mm 0.00 in/hr0.0 mm/hr 0.00 in0.0 mm
03:10 AM 47.3°F8.5°C 35.4°F1.9°C 63% 7.0 mph SE11.3 kmh SE 13.0 mph20.9 kmh 30.07 in1018.3 mb 0.00 in0.0 mm 0.00 in/hr0.0 mm/hr 0.00 in0.0 mm
03:05 AM 47.2°F8.4°C 35.3°F1.8°C 63% 5.0 mph SE8.0 kmh SE 13.0 mph20.9 kmh 30.07 in1018.3 mb 0.00 in0.0 mm 0.00 in/hr0.0 mm/hr 0.00 in0.0 mm
03:00 AM 47.0°F8.3°C 35.5°F1.9°C 64% 8.0 mph ESE12.9 kmh ESE 13.0 mph20.9 kmh 30.07 in1018.3 mb 0.00 in0.0 mm 0.00 in/hr0.0 mm/hr 0.00 in0.0 mm
02:55 AM 46.8°F8.2°C 35.3°F1.8°C 64% 5.0 mph SE8.0 kmh SE 14.0 mph22.5 kmh 30.07 in1018.3 mb 0.00 in0.0 mm 0.00 in/hr0.0 mm/hr 0.00 in0.0 mm
02:50 AM 46.8°F8.2°C 35.3°F1.8°C 64% 7.0 mph ESE11.3 kmh ESE 14.0 mph22.5 kmh 30.07 in1018.3 mb 0.00 in0.0 mm 0.00 in/hr0.0 mm/hr 0.00 in0.0 mm
02:45 AM 46.7°F8.2°C 35.6°F2.0°C 65% 7.0 mph SSE11.3 kmh SSE 13.0 mph20.9 kmh 30.07 in1018.3 mb 0.00 in0.0 mm 0.00 in/hr0.0 mm/hr 0.00 in0.0 mm
02:40 AM 46.5°F8.1°C 35.4°F1.9°C 65% 10.0 mph ESE16.1 kmh ESE 13.0 mph20.9 kmh 30.07 in1018.3 mb 0.00 in0.0 mm 0.00 in/hr0.0 mm/hr 0.00 in0.0 mm
02:35 AM 46.4°F8.0°C 35.3°F1.8°C 65% 10.0 mph ESE16.1 kmh ESE 10.0 mph16.1 kmh 30.07 in1018.3 mb 0.00 in0.0 mm 0.00 in/hr0.0 mm/hr 0.00 in0.0 mm
02:30 AM 46.4°F8.0°C 35.3°F1.8°C 65% 7.0 mph SE11.3 kmh SE 10.0 mph16.1 kmh 30.07 in1018.3 mb 0.00 in0.0 mm 0.00 in/hr0.0 mm/hr 0.00 in0.0 mm
02:25 AM 46.3°F7.9°C 35.2°F1.8°C 65% 9.0 mph S14.5 kmh S 14.0 mph22.5 kmh 30.07 in1018.3 mb 0.00 in0.0 mm 0.00 in/hr0.0 mm/hr 0.00 in0.0 mm
02:20 AM 46.3°F7.9°C 35.2°F1.8°C 65% 4.0 mph SE6.4 kmh SE 14.0 mph22.5 kmh 30.07 in1018.3 mb 0.00 in0.0 mm 0.00 in/hr0.0 mm/hr 0.00 in0.0 mm
02:15 AM 46.4°F8.0°C 35.3°F1.8°C 65% 4.0 mph SE6.4 kmh SE 14.0 mph22.5 kmh 30.07 in1018.3 mb 0.00 in0.0 mm 0.00 in/hr0.0 mm/hr 0.00 in0.0 mm
02:10 AM 46.6°F8.1°C 35.1°F1.7°C 64% 8.0 mph ESE12.9 kmh ESE 14.0 mph22.5 kmh 30.07 in1018.3 mb 0.00 in0.0 mm 0.00 in/hr0.0 mm/hr 0.00 in0.0 mm
02:05 AM 46.7°F8.2°C 35.2°F1.8°C 64% 7.0 mph SE11.3 kmh SE 13.0 mph20.9 kmh 30.08 in1018.6 mb 0.00 in0.0 mm 0.00 in/hr0.0 mm/hr 0.00 in0.0 mm
02:00 AM 46.9°F8.3°C 35.4°F1.9°C 64% 2.0 mph ESE3.2 kmh ESE 13.0 mph20.9 kmh 30.08 in1018.6 mb 0.00 in0.0 mm 0.00 in/hr0.0 mm/hr 0.00 in0.0 mm
01:55 AM 47.0°F8.3°C 35.1°F1.7°C 63% 3.0 mph E4.8 kmh E 15.0 mph24.1 kmh 30.08 in1018.6 mb 0.00 in0.0 mm 0.00 in/hr0.0 mm/hr 0.00 in0.0 mm
01:50 AM 47.1°F8.4°C 35.2°F1.8°C 63% 7.0 mph SE11.3 kmh SE 14.0 mph22.5 kmh 30.09 in1019.0 mb 0.00 in0.0 mm 0.00 in/hr0.0 mm/hr 0.00 in0.0 mm
01:45 AM 47.4°F8.6°C 35.1°F1.7°C 62% 5.0 mph SE8.0 kmh SE 14.0 mph22.5 kmh 30.09 in1019.0 mb 0.00 in0.0 mm 0.00 in/hr0.0 mm/hr 0.00 in0.0 mm
01:40 AM 47.6°F8.7°C 35.2°F1.8°C 62% 7.0 mph SE11.3 kmh SE 14.0 mph22.5 kmh 30.09 in1019.0 mb 0.00 in0.0 mm 0.00 in/hr0.0 mm/hr 0.00 in0.0 mm
01:35 AM 47.8°F8.8°C 35.0°F1.7°C 61% 5.0 mph SE8.0 kmh SE 13.0 mph20.9 kmh 30.09 in1019.0 mb 0.00 in0.0 mm 0.00 in/hr0.0 mm/hr 0.00 in0.0 mm
01:30 AM 47.9°F8.8°C 35.1°F1.7°C 61% 8.0 mph E12.9 kmh E 8.0 mph12.9 kmh 30.09 in1019.0 mb 0.00 in0.0 mm 0.00 in/hr0.0 mm/hr 0.00 in0.0 mm
01:25 AM 48.0°F8.9°C 35.2°F1.8°C 61% 9.0 mph SE14.5 kmh SE 19.0 mph30.6 kmh 30.09 in1019.0 mb 0.00 in0.0 mm 0.00 in/hr0.0 mm/hr 0.00 in0.0 mm
01:20 AM 48.0°F8.9°C 35.2°F1.8°C 61% 5.0 mph ESE8.0 kmh ESE 19.0 mph30.6 kmh 30.09 in1019.0 mb 0.00 in0.0 mm 0.00 in/hr0.0 mm/hr 0.00 in0.0 mm
01:15 AM 48.0°F8.9°C 35.2°F1.8°C 61% 9.0 mph SE14.5 kmh SE 19.0 mph30.6 kmh 30.09 in1019.0 mb 0.00 in0.0 mm 0.00 in/hr0.0 mm/hr 0.00 in0.0 mm
01:10 AM 48.2°F9.0°C 35.0°F1.7°C 60% 7.0 mph SE11.3 kmh SE 19.0 mph30.6 kmh 30.09 in1019.0 mb 0.00 in0.0 mm 0.00 in/hr0.0 mm/hr 0.00 in0.0 mm
01:05 AM 48.2°F9.0°C 35.0°F1.7°C 60% 12.0 mph SE19.3 kmh SE 19.0 mph30.6 kmh 30.09 in1019.0 mb 0.00 in0.0 mm 0.00 in/hr0.0 mm/hr 0.00 in0.0 mm
01:00 AM 48.4°F9.1°C 35.2°F1.8°C 60% 6.0 mph SE9.7 kmh SE 13.0 mph20.9 kmh 30.10 in1019.3 mb 0.00 in0.0 mm 0.00 in/hr0.0 mm/hr 0.00 in0.0 mm
12:55 AM 48.5°F9.2°C 35.3°F1.8°C 60% 8.0 mph SE12.9 kmh SE 15.0 mph24.1 kmh 30.10 in1019.3 mb 0.00 in0.0 mm 0.00 in/hr0.0 mm/hr 0.00 in0.0 mm
12:50 AM 48.6°F9.2°C 35.4°F1.9°C 60% 5.0 mph SSW8.0 kmh SSW 15.0 mph24.1 kmh 30.10 in1019.3 mb 0.00 in0.0 mm 0.00 in/hr0.0 mm/hr 0.00 in0.0 mm
12:45 AM 48.7°F9.3°C 35.0°F1.7°C 59% 4.0 mph SE6.4 kmh SE 15.0 mph24.1 kmh 30.10 in1019.3 mb 0.00 in0.0 mm 0.00 in/hr0.0 mm/hr 0.00 in0.0 mm
12:40 AM 48.8°F9.3°C 35.1°F1.7°C 59% 11.0 mph S17.7 kmh S 15.0 mph24.1 kmh 30.10 in1019.3 mb 0.00 in0.0 mm 0.00 in/hr0.0 mm/hr 0.00 in0.0 mm
12:35 AM 48.9°F9.4°C 35.2°F1.8°C 59% 9.0 mph ESE14.5 kmh ESE 14.0 mph22.5 kmh 30.10 in1019.3 mb 0.00 in0.0 mm 0.00 in/hr0.0 mm/hr 0.00 in0.0 mm
12:30 AM 48.9°F9.4°C 35.2°F1.8°C 59% 7.0 mph E11.3 kmh E 11.0 mph17.7 kmh 30.10 in1019.3 mb 0.00 in0.0 mm 0.00 in/hr0.0 mm/hr 0.00 in0.0 mm
12:25 AM 48.9°F9.4°C 35.2°F1.8°C 59% 3.0 mph SE4.8 kmh SE 15.0 mph24.1 kmh 30.10 in1019.3 mb 0.00 in0.0 mm 0.00 in/hr0.0 mm/hr 0.00 in0.0 mm
12:20 AM 49.0°F9.4°C 35.3°F1.8°C 59% 10.0 mph ESE16.1 kmh ESE 15.0 mph24.1 kmh 30.10 in1019.3 mb 0.00 in0.0 mm 0.00 in/hr0.0 mm/hr 0.00 in0.0 mm
12:15 AM 49.0°F9.4°C 35.3°F1.8°C 59% 8.0 mph SE12.9 kmh SE 15.0 mph24.1 kmh 30.10 in1019.3 mb 0.00 in0.0 mm 0.00 in/hr0.0 mm/hr 0.00 in0.0 mm
12:10 AM 48.9°F9.4°C 35.2°F1.8°C 59% 5.0 mph SE8.0 kmh SE 15.0 mph24.1 kmh 30.10 in1019.3 mb 0.00 in0.0 mm 0.00 in/hr0.0 mm/hr 0.00 in0.0 mm
12:05 AM 48.8°F9.3°C 35.6°F2.0°C 60% 9.0 mph SE14.5 kmh SE 13.0 mph20.9 kmh 30.10 in1019.3 mb 0.00 in0.0 mm 0.00 in/hr0.0 mm/hr 0.00 in0.0 mm
12:00 AM 48.8°F9.3°C 35.6°F2.0°C 60% 7.0 mph SSE11.3 kmh SSE 9.0 mph14.5 kmh 30.10 in1019.3 mb 0.00 in0.0 mm 0.00 in/hr0.0 mm/hr 0.00 in0.0 mm